CheckWX is a tool to help pilots better visualize weather data.  It is not intended as a substitute for an official pre-flight weather briefing.

04:43:19 UTC

KVJI METAR
Virginia Highlands Airport
Abingdon, Virginia, USA
Current

28 mins ago

KVJI 170415Z AUTO 00000KT 10SM SCT060 SCT070 21/18 A3009 RMK AO2 T02130176
Observed
Sep-17 @ 04:15 UTC
Visibility
10 SM
Flight Rules
VFR
Cloud Levels
  • Scattered at 6,000' AGL
  • Scattered at 7,000' AGL
Temperature
21°C / 70°F
Dewpoint
18°C / 64°F
Humidity
83%
Altimeter
30.09" Hg
Pressure
1018.92 hPa
Previous

48 mins ago

KVJI 170355Z AUTO 00000KT 10SM SCT070 BKN080 22/18 A3009 RMK AO2 T02170175
Observed
Sep-17 @ 03:55 UTC
Visibility
10 SM
Flight Rules
VFR
Cloud Levels
  • Scattered at 7,000' AGL
  • Broken at 8,000' AGL
Temperature
22°C / 72°F
Dewpoint
18°C / 64°F
Humidity
78%
Altimeter
30.09" Hg
Pressure
1018.92 hPa
Previous

1 hour ago

KVJI 170335Z AUTO 00000KT 10SM BKN070 OVC080 22/17 A3010 RMK AO2 T02180173
Observed
Sep-17 @ 03:35 UTC
Visibility
10 SM
Flight Rules
VFR
Cloud Levels
  • Broken at 7,000' AGL
  • Overcast at 8,000' AGL
Temperature
22°C / 72°F
Dewpoint
17°C / 63°F
Humidity
73%
Altimeter
30.1" Hg
Pressure
1019.32 hPa